sensor_id;sensor_type;location;lat;lon;timestamp;P1;durP1;ratioP1;P2;durP2;ratioP2
61938;SDS011;47897;50.322;18.892;2022-10-31T00:00:26;65.90;;;34.40;;
61938;SDS011;47897;50.322;18.892;2022-10-31T00:02:51;61.20;;;31.80;;
61938;SDS011;47897;50.322;18.892;2022-10-31T00:05:17;62.10;;;32.30;;
61938;SDS011;47897;50.322;18.892;2022-10-31T00:07:43;60.50;;;33.10;;
61938;SDS011;47897;50.322;18.892;2022-10-31T00:10:08;62.00;;;31.80;;
61938;SDS011;47897;50.322;18.892;2022-10-31T00:12:34;59.70;;;33.50;;
61938;SDS011;47897;50.322;18.892;2022-10-31T00:15:00;61.90;;;32.20;;
61938;SDS011;47897;50.322;18.892;2022-10-31T00:17:25;61.60;;;33.40;;
61938;SDS011;47897;50.322;18.892;2022-10-31T00:19:51;61.20;;;30.40;;
61938;SDS011;47897;50.322;18.892;2022-10-31T00:22:17;59.80;;;31.20;;
61938;SDS011;47897;50.322;18.892;2022-10-31T00:24:42;58.20;;;30.40;;
61938;SDS011;47897;50.322;18.892;2022-10-31T00:27:08;59.20;;;29.30;;
61938;SDS011;47897;50.322;18.892;2022-10-31T00:29:34;59.60;;;30.80;;
61938;SDS011;47897;50.322;18.892;2022-10-31T00:31:59;55.60;;;31.00;;
61938;SDS011;47897;50.322;18.892;2022-10-31T00:34:25;63.00;;;31.00;;
61938;SDS011;47897;50.322;18.892;2022-10-31T00:36:50;53.10;;;28.80;;
61938;SDS011;47897;50.322;18.892;2022-10-31T00:39:16;55.80;;;30.30;;
61938;SDS011;47897;50.322;18.892;2022-10-31T00:41:42;53.90;;;28.40;;
61938;SDS011;47897;50.322;18.892;2022-10-31T00:44:07;58.50;;;29.60;;
61938;SDS011;47897;50.322;18.892;2022-10-31T00:46:33;55.90;;;29.10;;
61938;SDS011;47897;50.322;18.892;2022-10-31T00:48:58;57.30;;;31.50;;
61938;SDS011;47897;50.322;18.892;2022-10-31T00:51:24;57.20;;;31.60;;
61938;SDS011;47897;50.322;18.892;2022-10-31T00:53:50;66.60;;;31.60;;
61938;SDS011;47897;50.322;18.892;2022-10-31T00:56:15;58.00;;;31.60;;
61938;SDS011;47897;50.322;18.892;2022-10-31T00:58:41;55.80;;;28.80;;
61938;SDS011;47897;50.322;18.892;2022-10-31T01:01:06;59.70;;;31.90;;
61938;SDS011;47897;50.322;18.892;2022-10-31T01:03:33;60.80;;;32.20;;
61938;SDS011;47897;50.322;18.892;2022-10-31T01:06:00;57.00;;;30.50;;
61938;SDS011;47897;50.322;18.892;2022-10-31T01:08:28;64.10;;;33.80;;
61938;SDS011;47897;50.322;18.892;2022-10-31T01:11:11;61.90;;;32.10;;
61938;SDS011;47897;50.322;18.892;2022-10-31T01:13:39;64.60;;;33.60;;
61938;SDS011;47897;50.322;18.892;2022-10-31T01:16:06;68.40;;;34.20;;
61938;SDS011;47897;50.322;18.892;2022-10-31T01:18:35;63.40;;;31.70;;
61938;SDS011;47897;50.322;18.892;2022-10-31T01:21:05;68.50;;;32.00;;
61938;SDS011;47897;50.322;18.892;2022-10-31T01:23:36;58.70;;;30.30;;
61938;SDS011;47897;50.322;18.892;2022-10-31T01:28:46;59.80;;;30.80;;
61938;SDS011;47897;50.322;18.892;2022-10-31T01:31:23;62.40;;;30.90;;
61938;SDS011;47897;50.322;18.892;2022-10-31T01:33:52;57.80;;;30.70;;
61938;SDS011;47897;50.322;18.892;2022-10-31T01:36:21;55.10;;;29.30;;
61938;SDS011;47897;50.322;18.892;2022-10-31T01:38:50;61.70;;;29.50;;
61938;SDS011;47897;50.322;18.892;2022-10-31T01:41:18;62.70;;;28.80;;
61938;SDS011;47897;50.322;18.892;2022-10-31T01:46:33;51.70;;;26.60;;
61938;SDS011;47897;50.322;18.892;2022-10-31T01:49:04;48.30;;;26.30;;
61938;SDS011;47897;50.322;18.892;2022-10-31T01:51:44;51.40;;;26.50;;
61938;SDS011;47897;50.322;18.892;2022-10-31T01:54:14;49.40;;;25.70;;
61938;SDS011;47897;50.322;18.892;2022-10-31T01:56:44;52.60;;;26.30;;
61938;SDS011;47897;50.322;18.892;2022-10-31T01:59:16;45.50;;;25.60;;
61938;SDS011;47897;50.322;18.892;2022-10-31T02:01:45;42.20;;;25.10;;
61938;SDS011;47897;50.322;18.892;2022-10-31T02:04:12;43.50;;;24.40;;
61938;SDS011;47897;50.322;18.892;2022-10-31T02:06:44;47.30;;;23.50;;
61938;SDS011;47897;50.322;18.892;2022-10-31T02:09:13;45.60;;;24.10;;
61938;SDS011;47897;50.322;18.892;2022-10-31T02:11:40;46.70;;;23.20;;
61938;SDS011;47897;50.322;18.892;2022-10-31T02:14:07;39.30;;;21.30;;
61938;SDS011;47897;50.322;18.892;2022-10-31T02:16:33;43.40;;;22.30;;
61938;SDS011;47897;50.322;18.892;2022-10-31T02:18:58;45.50;;;21.70;;
61938;SDS011;47897;50.322;18.892;2022-10-31T02:43:53;41.80;;;21.10;;
61938;SDS011;47897;50.322;18.892;2022-10-31T02:46:44;44.40;;;20.90;;
61938;SDS011;47897;50.322;18.892;2022-10-31T02:54:49;38.10;;;20.50;;
61938;SDS011;47897;50.322;18.892;2022-10-31T02:57:17;41.40;;;21.40;;
61938;SDS011;47897;50.322;18.892;2022-10-31T03:00:03;38.80;;;20.40;;
61938;SDS011;47897;50.322;18.892;2022-10-31T03:08:35;38.50;;;20.90;;
61938;SDS011;47897;50.322;18.892;2022-10-31T03:11:06;41.20;;;21.80;;
61938;SDS011;47897;50.322;18.892;2022-10-31T03:16:15;36.50;;;19.80;;
61938;SDS011;47897;50.322;18.892;2022-10-31T03:24:09;43.70;;;21.30;;
61938;SDS011;47897;50.322;18.892;2022-10-31T03:26:38;43.60;;;22.70;;
61938;SDS011;47897;50.322;18.892;2022-10-31T03:29:10;39.60;;;20.70;;
61938;SDS011;47897;50.322;18.892;2022-10-31T03:31:44;39.10;;;20.20;;
61938;SDS011;47897;50.322;18.892;2022-10-31T03:34:14;36.30;;;19.30;;
61938;SDS011;47897;50.322;18.892;2022-10-31T03:36:42;40.10;;;19.50;;
61938;SDS011;47897;50.322;18.892;2022-10-31T03:39:14;40.50;;;19.30;;
61938;SDS011;47897;50.322;18.892;2022-10-31T03:41:43;36.80;;;19.90;;
61938;SDS011;47897;50.322;18.892;2022-10-31T03:44:14;37.70;;;18.60;;
61938;SDS011;47897;50.322;18.892;2022-10-31T03:46:44;38.30;;;20.50;;
61938;SDS011;47897;50.322;18.892;2022-10-31T03:49:10;40.70;;;19.50;;
61938;SDS011;47897;50.322;18.892;2022-10-31T03:51:45;35.20;;;19.80;;
61938;SDS011;47897;50.322;18.892;2022-10-31T03:54:59;38.30;;;19.90;;
61938;SDS011;47897;50.322;18.892;2022-10-31T03:59:50;40.20;;;21.40;;
61938;SDS011;47897;50.322;18.892;2022-10-31T04:02:23;39.80;;;20.60;;
61938;SDS011;47897;50.322;18.892;2022-10-31T04:04:53;35.00;;;18.90;;
61938;SDS011;47897;50.322;18.892;2022-10-31T04:07:21;34.90;;;19.10;;
61938;SDS011;47897;50.322;18.892;2022-10-31T04:09:49;35.30;;;19.20;;
61938;SDS011;47897;50.322;18.892;2022-10-31T04:12:17;39.30;;;19.80;;
61938;SDS011;47897;50.322;18.892;2022-10-31T04:14:46;38.30;;;20.90;;
61938;SDS011;47897;50.322;18.892;2022-10-31T04:17:16;38.90;;;20.80;;
61938;SDS011;47897;50.322;18.892;2022-10-31T04:19:45;38.90;;;20.10;;
61938;SDS011;47897;50.322;18.892;2022-10-31T04:22:11;39.80;;;20.10;;
61938;SDS011;47897;50.322;18.892;2022-10-31T04:24:37;37.60;;;20.80;;
61938;SDS011;47897;50.322;18.892;2022-10-31T04:27:05;38.60;;;20.90;;
61938;SDS011;47897;50.322;18.892;2022-10-31T04:29:31;37.80;;;19.90;;
61938;SDS011;47897;50.322;18.892;2022-10-31T04:31:57;36.10;;;20.20;;
61938;SDS011;47897;50.322;18.892;2022-10-31T04:34:23;36.40;;;20.60;;
61938;SDS011;47897;50.322;18.892;2022-10-31T04:36:48;42.20;;;20.80;;
61938;SDS011;47897;50.322;18.892;2022-10-31T04:39:14;39.20;;;20.80;;
61938;SDS011;47897;50.322;18.892;2022-10-31T04:41:40;43.00;;;22.00;;
61938;SDS011;47897;50.322;18.892;2022-10-31T04:44:05;38.60;;;20.70;;
61938;SDS011;47897;50.322;18.892;2022-10-31T04:46:31;38.00;;;21.10;;
61938;SDS011;47897;50.322;18.892;2022-10-31T04:48:57;45.10;;;20.70;;
61938;SDS011;47897;50.322;18.892;2022-10-31T04:51:22;43.00;;;22.00;;
61938;SDS011;47897;50.322;18.892;2022-10-31T04:53:48;38.80;;;21.50;;
61938;SDS011;47897;50.322;18.892;2022-10-31T04:56:14;37.20;;;20.10;;
61938;SDS011;47897;50.322;18.892;2022-10-31T04:58:39;43.20;;;23.40;;
61938;SDS011;47897;50.322;18.892;2022-10-31T05:01:05;39.20;;;22.10;;
61938;SDS011;47897;50.322;18.892;2022-10-31T05:03:30;39.80;;;22.50;;
61938;SDS011;47897;50.322;18.892;2022-10-31T05:05:56;45.30;;;23.00;;
61938;SDS011;47897;50.322;18.892;2022-10-31T05:08:22;42.80;;;23.60;;
61938;SDS011;47897;50.322;18.892;2022-10-31T05:10:47;45.70;;;22.90;;
61938;SDS011;47897;50.322;18.892;2022-10-31T05:13:13;43.50;;;23.50;;
61938;SDS011;47897;50.322;18.892;2022-10-31T05:15:40;40.60;;;22.70;;
61938;SDS011;47897;50.322;18.892;2022-10-31T05:18:06;42.10;;;21.90;;
61938;SDS011;47897;50.322;18.892;2022-10-31T05:20:32;39.60;;;20.90;;
61938;SDS011;47897;50.322;18.892;2022-10-31T05:22:57;36.30;;;20.60;;
61938;SDS011;47897;50.322;18.892;2022-10-31T05:25:25;37.60;;;21.90;;
61938;SDS011;47897;50.322;18.892;2022-10-31T05:27:52;40.80;;;22.00;;
61938;SDS011;47897;50.322;18.892;2022-10-31T05:30:23;43.90;;;21.60;;
61938;SDS011;47897;50.322;18.892;2022-10-31T05:32:51;42.00;;;22.00;;
61938;SDS011;47897;50.322;18.892;2022-10-31T05:35:18;44.90;;;23.10;;
61938;SDS011;47897;50.322;18.892;2022-10-31T05:37:46;44.60;;;23.40;;
61938;SDS011;47897;50.322;18.892;2022-10-31T05:40:12;44.00;;;23.60;;
61938;SDS011;47897;50.322;18.892;2022-10-31T05:42:40;43.20;;;24.90;;
61938;SDS011;47897;50.322;18.892;2022-10-31T05:45:08;49.50;;;26.90;;
61938;SDS011;47897;50.322;18.892;2022-10-31T05:47:35;50.80;;;28.00;;
61938;SDS011;47897;50.322;18.892;2022-10-31T05:50:00;54.40;;;28.40;;
61938;SDS011;47897;50.322;18.892;2022-10-31T05:52:26;56.50;;;31.10;;
61938;SDS011;47897;50.322;18.892;2022-10-31T05:54:52;61.60;;;32.60;;
61938;SDS011;47897;50.322;18.892;2022-10-31T05:57:18;62.10;;;33.00;;
61938;SDS011;47897;50.322;18.892;2022-10-31T05:59:43;68.90;;;37.60;;
61938;SDS011;47897;50.322;18.892;2022-10-31T06:02:09;73.50;;;38.50;;
61938;SDS011;47897;50.322;18.892;2022-10-31T06:04:35;74.90;;;37.80;;
61938;SDS011;47897;50.322;18.892;2022-10-31T06:07:00;68.30;;;35.80;;
61938;SDS011;47897;50.322;18.892;2022-10-31T06:09:26;70.30;;;36.20;;
61938;SDS011;47897;50.322;18.892;2022-10-31T06:11:51;71.10;;;38.70;;
61938;SDS011;47897;50.322;18.892;2022-10-31T06:14:17;68.30;;;35.60;;
61938;SDS011;47897;50.322;18.892;2022-10-31T06:16:43;63.70;;;35.90;;
61938;SDS011;47897;50.322;18.892;2022-10-31T06:19:08;65.20;;;33.50;;
61938;SDS011;47897;50.322;18.892;2022-10-31T06:21:34;62.40;;;32.30;;
61938;SDS011;47897;50.322;18.892;2022-10-31T06:24:00;63.70;;;31.90;;
61938;SDS011;47897;50.322;18.892;2022-10-31T06:26:25;62.50;;;33.00;;
61938;SDS011;47897;50.322;18.892;2022-10-31T06:28:51;57.30;;;30.50;;
61938;SDS011;47897;50.322;18.892;2022-10-31T06:31:17;56.40;;;29.30;;
61938;SDS011;47897;50.322;18.892;2022-10-31T06:33:42;61.40;;;32.20;;
61938;SDS011;47897;50.322;18.892;2022-10-31T06:36:09;63.70;;;34.50;;
61938;SDS011;47897;50.322;18.892;2022-10-31T06:38:35;61.00;;;33.30;;
61938;SDS011;47897;50.322;18.892;2022-10-31T06:41:04;65.10;;;33.40;;
61938;SDS011;47897;50.322;18.892;2022-10-31T06:43:31;73.40;;;39.70;;
61938;SDS011;47897;50.322;18.892;2022-10-31T06:45:57;110.00;;;49.00;;
61938;SDS011;47897;50.322;18.892;2022-10-31T06:48:27;137.40;;;65.90;;
61938;SDS011;47897;50.322;18.892;2022-10-31T06:50:52;186.90;;;85.20;;
61938;SDS011;47897;50.322;18.892;2022-10-31T06:53:18;175.30;;;80.80;;
61938;SDS011;47897;50.322;18.892;2022-10-31T06:55:44;182.10;;;87.20;;
61938;SDS011;47897;50.322;18.892;2022-10-31T06:58:10;165.60;;;77.30;;
61938;SDS011;47897;50.322;18.892;2022-10-31T07:00:36;141.80;;;69.40;;
61938;SDS011;47897;50.322;18.892;2022-10-31T07:03:06;172.50;;;84.40;;
61938;SDS011;47897;50.322;18.892;2022-10-31T07:05:35;177.40;;;82.20;;
61938;SDS011;47897;50.322;18.892;2022-10-31T07:08:02;203.30;;;90.50;;
61938;SDS011;47897;50.322;18.892;2022-10-31T07:10:31;195.20;;;88.90;;
61938;SDS011;47897;50.322;18.892;2022-10-31T07:12:59;214.90;;;99.10;;
61938;SDS011;47897;50.322;18.892;2022-10-31T07:15:27;219.20;;;96.50;;
61938;SDS011;47897;50.322;18.892;2022-10-31T07:17:54;200.00;;;86.80;;
61938;SDS011;47897;50.322;18.892;2022-10-31T07:20:25;166.80;;;77.20;;
61938;SDS011;47897;50.322;18.892;2022-10-31T07:22:51;199.30;;;89.20;;
61938;SDS011;47897;50.322;18.892;2022-10-31T07:25:16;174.30;;;77.70;;
61938;SDS011;47897;50.322;18.892;2022-10-31T07:27:43;152.80;;;66.90;;
61938;SDS011;47897;50.322;18.892;2022-10-31T07:30:09;134.30;;;61.30;;
61938;SDS011;47897;50.322;18.892;2022-10-31T07:35:09;132.70;;;54.30;;
61938;SDS011;47897;50.322;18.892;2022-10-31T07:37:37;125.50;;;54.60;;
61938;SDS011;47897;50.322;18.892;2022-10-31T07:40:03;127.30;;;55.20;;
61938;SDS011;47897;50.322;18.892;2022-10-31T07:42:40;119.90;;;52.60;;
61938;SDS011;47897;50.322;18.892;2022-10-31T07:45:09;119.00;;;52.50;;
61938;SDS011;47897;50.322;18.892;2022-10-31T07:47:40;119.40;;;50.90;;
61938;SDS011;47897;50.322;18.892;2022-10-31T07:50:06;116.30;;;49.20;;
61938;SDS011;47897;50.322;18.892;2022-10-31T07:52:33;121.00;;;52.90;;
61938;SDS011;47897;50.322;18.892;2022-10-31T07:54:59;125.20;;;54.90;;
61938;SDS011;47897;50.322;18.892;2022-10-31T07:57:25;126.40;;;57.10;;
61938;SDS011;47897;50.322;18.892;2022-10-31T07:59:50;123.10;;;55.00;;
61938;SDS011;47897;50.322;18.892;2022-10-31T08:02:16;127.90;;;57.80;;
61938;SDS011;47897;50.322;18.892;2022-10-31T08:04:42;125.20;;;55.00;;
61938;SDS011;47897;50.322;18.892;2022-10-31T08:07:08;132.20;;;54.50;;
61938;SDS011;47897;50.322;18.892;2022-10-31T08:09:34;123.50;;;53.50;;
61938;SDS011;47897;50.322;18.892;2022-10-31T08:11:59;127.30;;;55.30;;
61938;SDS011;47897;50.322;18.892;2022-10-31T08:14:26;118.00;;;53.50;;
61938;SDS011;47897;50.322;18.892;2022-10-31T08:16:52;119.60;;;53.50;;
61938;SDS011;47897;50.322;18.892;2022-10-31T08:19:18;102.70;;;49.00;;
61938;SDS011;47897;50.322;18.892;2022-10-31T08:21:44;112.00;;;49.90;;
61938;SDS011;47897;50.322;18.892;2022-10-31T08:24:10;106.80;;;51.30;;
61938;SDS011;47897;50.322;18.892;2022-10-31T08:26:35;90.90;;;40.90;;
61938;SDS011;47897;50.322;18.892;2022-10-31T08:29:01;73.30;;;34.10;;
61938;SDS011;47897;50.322;18.892;2022-10-31T08:31:28;67.70;;;33.20;;
61938;SDS011;47897;50.322;18.892;2022-10-31T08:33:54;77.10;;;33.80;;
61938;SDS011;47897;50.322;18.892;2022-10-31T08:36:20;74.20;;;34.10;;
61938;SDS011;47897;50.322;18.892;2022-10-31T08:38:46;61.90;;;30.00;;
61938;SDS011;47897;50.322;18.892;2022-10-31T08:41:13;65.00;;;31.30;;
61938;SDS011;47897;50.322;18.892;2022-10-31T08:43:39;60.40;;;31.60;;
61938;SDS011;47897;50.322;18.892;2022-10-31T08:46:05;61.20;;;31.40;;
61938;SDS011;47897;50.322;18.892;2022-10-31T08:48:31;63.20;;;32.40;;
61938;SDS011;47897;50.322;18.892;2022-10-31T08:50:57;61.00;;;30.00;;
61938;SDS011;47897;50.322;18.892;2022-10-31T08:53:24;63.90;;;31.50;;
61938;SDS011;47897;50.322;18.892;2022-10-31T08:55:53;65.10;;;31.10;;
61938;SDS011;47897;50.322;18.892;2022-10-31T08:58:20;56.40;;;29.30;;
61938;SDS011;47897;50.322;18.892;2022-10-31T09:00:47;55.60;;;30.00;;
61938;SDS011;47897;50.322;18.892;2022-10-31T09:03:15;53.90;;;30.00;;
61938;SDS011;47897;50.322;18.892;2022-10-31T09:05:43;56.60;;;28.50;;
61938;SDS011;47897;50.322;18.892;2022-10-31T09:08:09;58.20;;;29.60;;
61938;SDS011;47897;50.322;18.892;2022-10-31T09:10:35;56.60;;;26.90;;
61938;SDS011;47897;50.322;18.892;2022-10-31T09:13:07;50.50;;;27.20;;
61938;SDS011;47897;50.322;18.892;2022-10-31T09:15:37;52.70;;;27.40;;
61938;SDS011;47897;50.322;18.892;2022-10-31T09:18:06;50.90;;;26.20;;
61938;SDS011;47897;50.322;18.892;2022-10-31T09:20:33;48.10;;;23.20;;
61938;SDS011;47897;50.322;18.892;2022-10-31T09:23:01;45.50;;;22.00;;
61938;SDS011;47897;50.322;18.892;2022-10-31T09:25:28;40.50;;;22.30;;
61938;SDS011;47897;50.322;18.892;2022-10-31T09:27:55;43.00;;;22.70;;
61938;SDS011;47897;50.322;18.892;2022-10-31T09:30:22;39.80;;;21.60;;
61938;SDS011;47897;50.322;18.892;2022-10-31T09:32:54;45.90;;;21.60;;
61938;SDS011;47897;50.322;18.892;2022-10-31T09:35:20;41.50;;;20.90;;
61938;SDS011;47897;50.322;18.892;2022-10-31T09:37:46;38.60;;;22.30;;
61938;SDS011;47897;50.322;18.892;2022-10-31T09:40:12;36.10;;;19.60;;
61938;SDS011;47897;50.322;18.892;2022-10-31T09:43:23;36.10;;;20.20;;
61938;SDS011;47897;50.322;18.892;2022-10-31T09:48:05;37.90;;;19.50;;
61938;SDS011;47897;50.322;18.892;2022-10-31T09:50:52;37.50;;;19.40;;
61938;SDS011;47897;50.322;18.892;2022-10-31T09:56:10;41.00;;;20.90;;
61938;SDS011;47897;50.322;18.892;2022-10-31T09:58:43;38.10;;;20.30;;
61938;SDS011;47897;50.322;18.892;2022-10-31T10:04:15;39.40;;;21.80;;
61938;SDS011;47897;50.322;18.892;2022-10-31T10:06:55;34.40;;;20.10;;
61938;SDS011;47897;50.322;18.892;2022-10-31T10:09:25;37.60;;;20.90;;
61938;SDS011;47897;50.322;18.892;2022-10-31T10:12:08;34.80;;;22.50;;
61938;SDS011;47897;50.322;18.892;2022-10-31T10:15:07;35.50;;;22.60;;
61938;SDS011;47897;50.322;18.892;2022-10-31T10:20:18;40.80;;;22.80;;
61938;SDS011;47897;50.322;18.892;2022-10-31T10:25:24;42.00;;;22.00;;
61938;SDS011;47897;50.322;18.892;2022-10-31T10:28:01;39.00;;;21.70;;
61938;SDS011;47897;50.322;18.892;2022-10-31T10:33:12;37.70;;;20.70;;
61938;SDS011;47897;50.322;18.892;2022-10-31T10:41:00;35.80;;;21.80;;
61938;SDS011;47897;50.322;18.892;2022-10-31T10:43:33;34.00;;;20.00;;
61938;SDS011;47897;50.322;18.892;2022-10-31T10:49:06;31.40;;;17.50;;
61938;SDS011;47897;50.322;18.892;2022-10-31T11:00:25;28.00;;;14.10;;
61938;SDS011;47897;50.322;18.892;2022-10-31T11:03:03;26.80;;;13.60;;
61938;SDS011;47897;50.322;18.892;2022-10-31T11:08:04;28.00;;;14.10;;
61938;SDS011;47897;50.322;18.892;2022-10-31T11:10:31;27.50;;;14.50;;
61938;SDS011;47897;50.322;18.892;2022-10-31T11:16:11;33.80;;;17.20;;
61938;SDS011;47897;50.322;18.892;2022-10-31T11:18:41;31.50;;;16.50;;
61938;SDS011;47897;50.322;18.892;2022-10-31T11:21:24;38.10;;;17.80;;
61938;SDS011;47897;50.322;18.892;2022-10-31T11:26:34;41.00;;;18.30;;
61938;SDS011;47897;50.322;18.892;2022-10-31T11:29:03;39.20;;;18.70;;
61938;SDS011;47897;50.322;18.892;2022-10-31T11:31:31;37.50;;;19.10;;
61938;SDS011;47897;50.322;18.892;2022-10-31T11:34:00;33.80;;;17.20;;
61938;SDS011;47897;50.322;18.892;2022-10-31T11:36:38;27.90;;;15.50;;
61938;SDS011;47897;50.322;18.892;2022-10-31T11:39:14;28.30;;;15.40;;
61938;SDS011;47897;50.322;18.892;2022-10-31T11:41:44;30.10;;;15.60;;
61938;SDS011;47897;50.322;18.892;2022-10-31T11:44:13;34.30;;;16.30;;
61938;SDS011;47897;50.322;18.892;2022-10-31T11:46:49;31.20;;;16.10;;
61938;SDS011;47897;50.322;18.892;2022-10-31T11:51:54;21.90;;;13.70;;
61938;SDS011;47897;50.322;18.892;2022-10-31T11:54:26;27.60;;;15.20;;
61938;SDS011;47897;50.322;18.892;2022-10-31T11:56:54;22.90;;;14.00;;
61938;SDS011;47897;50.322;18.892;2022-10-31T11:59:22;25.70;;;13.40;;
61938;SDS011;47897;50.322;18.892;2022-10-31T12:01:56;27.60;;;14.00;;
61938;SDS011;47897;50.322;18.892;2022-10-31T12:04:46;21.80;;;13.20;;
61938;SDS011;47897;50.322;18.892;2022-10-31T12:07:11;25.40;;;13.20;;
61938;SDS011;47897;50.322;18.892;2022-10-31T12:09:37;21.60;;;13.00;;
61938;SDS011;47897;50.322;18.892;2022-10-31T12:23:19;21.20;;;11.50;;
61938;SDS011;47897;50.322;18.892;2022-10-31T12:26:18;21.20;;;10.60;;
61938;SDS011;47897;50.322;18.892;2022-10-31T12:29:07;23.30;;;11.60;;
61938;SDS011;47897;50.322;18.892;2022-10-31T12:51:59;30.90;;;14.20;;
61938;SDS011;47897;50.322;18.892;2022-10-31T12:57:22;22.70;;;12.00;;
61938;SDS011;47897;50.322;18.892;2022-10-31T13:02:44;23.90;;;12.90;;
61938;SDS011;47897;50.322;18.892;2022-10-31T13:05:27;26.40;;;11.90;;
61938;SDS011;47897;50.322;18.892;2022-10-31T13:08:00;18.80;;;11.40;;
61938;SDS011;47897;50.322;18.892;2022-10-31T13:10:33;24.70;;;11.90;;
61938;SDS011;47897;50.322;18.892;2022-10-31T13:13:07;16.10;;;10.30;;
61938;SDS011;47897;50.322;18.892;2022-10-31T13:18:28;21.50;;;11.20;;
61938;SDS011;47897;50.322;18.892;2022-10-31T13:20:53;22.60;;;10.60;;
61938;SDS011;47897;50.322;18.892;2022-10-31T13:23:31;23.30;;;10.50;;
61938;SDS011;47897;50.322;18.892;2022-10-31T13:26:01;21.30;;;10.30;;
61938;SDS011;47897;50.322;18.892;2022-10-31T13:28:44;18.10;;;10.30;;
61938;SDS011;47897;50.322;18.892;2022-10-31T13:31:13;18.40;;;10.20;;
61938;SDS011;47897;50.322;18.892;2022-10-31T13:33:41;19.60;;;10.90;;
61938;SDS011;47897;50.322;18.892;2022-10-31T13:44:47;19.60;;;9.70;;
61938;SDS011;47897;50.322;18.892;2022-10-31T13:47:23;20.10;;;9.90;;
61938;SDS011;47897;50.322;18.892;2022-10-31T13:49:49;22.20;;;10.90;;
61938;SDS011;47897;50.322;18.892;2022-10-31T13:52:21;19.20;;;11.20;;
61938;SDS011;47897;50.322;18.892;2022-10-31T13:54:50;17.40;;;10.20;;
61938;SDS011;47897;50.322;18.892;2022-10-31T13:59:53;24.20;;;13.00;;
61938;SDS011;47897;50.322;18.892;2022-10-31T14:02:31;20.50;;;9.70;;
61938;SDS011;47897;50.322;18.892;2022-10-31T14:05:22;18.20;;;9.90;;
61938;SDS011;47897;50.322;18.892;2022-10-31T14:07:51;16.70;;;9.20;;
61938;SDS011;47897;50.322;18.892;2022-10-31T14:12:52;16.60;;;9.10;;
61938;SDS011;47897;50.322;18.892;2022-10-31T14:15:27;16.30;;;9.80;;
61938;SDS011;47897;50.322;18.892;2022-10-31T14:18:00;16.50;;;9.00;;
61938;SDS011;47897;50.322;18.892;2022-10-31T14:20:41;19.80;;;8.70;;
61938;SDS011;47897;50.322;18.892;2022-10-31T14:28:43;17.60;;;9.70;;
61938;SDS011;47897;50.322;18.892;2022-10-31T14:31:25;15.50;;;9.50;;
61938;SDS011;47897;50.322;18.892;2022-10-31T14:33:52;19.10;;;9.50;;
61938;SDS011;47897;50.322;18.892;2022-10-31T14:36:21;18.80;;;10.70;;
61938;SDS011;47897;50.322;18.892;2022-10-31T14:39:11;19.60;;;10.30;;
61938;SDS011;47897;50.322;18.892;2022-10-31T14:52:35;32.80;;;18.60;;
61938;SDS011;47897;50.322;18.892;2022-10-31T14:55:04;29.60;;;17.10;;
61938;SDS011;47897;50.322;18.892;2022-10-31T14:57:35;27.00;;;15.70;;
61938;SDS011;47897;50.322;18.892;2022-10-31T15:00:05;28.20;;;14.70;;
61938;SDS011;47897;50.322;18.892;2022-10-31T15:02:45;25.90;;;14.50;;
61938;SDS011;47897;50.322;18.892;2022-10-31T15:05:32;25.30;;;12.50;;
61938;SDS011;47897;50.322;18.892;2022-10-31T15:08:12;23.10;;;12.10;;
61938;SDS011;47897;50.322;18.892;2022-10-31T15:10:50;21.60;;;12.40;;
61938;SDS011;47897;50.322;18.892;2022-10-31T15:13:17;24.00;;;13.00;;
61938;SDS011;47897;50.322;18.892;2022-10-31T15:15:46;24.10;;;12.80;;
61938;SDS011;47897;50.322;18.892;2022-10-31T15:18:14;33.00;;;12.80;;
61938;SDS011;47897;50.322;18.892;2022-10-31T15:20:43;30.90;;;13.80;;
61938;SDS011;47897;50.322;18.892;2022-10-31T15:23:11;29.20;;;14.90;;
61938;SDS011;47897;50.322;18.892;2022-10-31T15:25:46;33.30;;;16.10;;
61938;SDS011;47897;50.322;18.892;2022-10-31T15:28:13;39.20;;;16.10;;
61938;SDS011;47897;50.322;18.892;2022-10-31T15:30:49;34.30;;;16.00;;
61938;SDS011;47897;50.322;18.892;2022-10-31T15:33:28;37.10;;;17.80;;
61938;SDS011;47897;50.322;18.892;2022-10-31T15:35:56;44.90;;;20.80;;
61938;SDS011;47897;50.322;18.892;2022-10-31T15:38:24;42.30;;;21.10;;
61938;SDS011;47897;50.322;18.892;2022-10-31T15:41:03;39.40;;;20.20;;
61938;SDS011;47897;50.322;18.892;2022-10-31T15:43:44;38.00;;;20.30;;
61938;SDS011;47897;50.322;18.892;2022-10-31T15:46:09;33.80;;;19.20;;
61938;SDS011;47897;50.322;18.892;2022-10-31T15:48:35;32.40;;;19.30;;
61938;SDS011;47897;50.322;18.892;2022-10-31T15:51:03;37.00;;;20.00;;
61938;SDS011;47897;50.322;18.892;2022-10-31T15:53:42;41.90;;;22.30;;
61938;SDS011;47897;50.322;18.892;2022-10-31T15:56:13;49.20;;;25.70;;
61938;SDS011;47897;50.322;18.892;2022-10-31T15:58:48;50.10;;;29.40;;
61938;SDS011;47897;50.322;18.892;2022-10-31T16:08:55;108.80;;;57.80;;
61938;SDS011;47897;50.322;18.892;2022-10-31T16:11:23;109.00;;;58.00;;
61938;SDS011;47897;50.322;18.892;2022-10-31T16:14:15;129.80;;;66.90;;
61938;SDS011;47897;50.322;18.892;2022-10-31T16:16:45;107.90;;;57.50;;
61938;SDS011;47897;50.322;18.892;2022-10-31T16:19:21;114.70;;;58.20;;
61938;SDS011;47897;50.322;18.892;2022-10-31T16:21:54;136.20;;;69.10;;
61938;SDS011;47897;50.322;18.892;2022-10-31T16:24:32;137.60;;;67.90;;
61938;SDS011;47897;50.322;18.892;2022-10-31T16:27:06;120.70;;;62.70;;
61938;SDS011;47897;50.322;18.892;2022-10-31T16:29:43;113.00;;;57.80;;
61938;SDS011;47897;50.322;18.892;2022-10-31T16:35:18;96.90;;;49.60;;
61938;SDS011;47897;50.322;18.892;2022-10-31T16:38:13;113.70;;;56.10;;
61938;SDS011;47897;50.322;18.892;2022-10-31T16:40:39;98.60;;;53.40;;
61938;SDS011;47897;50.322;18.892;2022-10-31T16:43:07;100.30;;;52.50;;
61938;SDS011;47897;50.322;18.892;2022-10-31T16:45:36;97.90;;;51.50;;
61938;SDS011;47897;50.322;18.892;2022-10-31T16:48:11;101.90;;;55.70;;
61938;SDS011;47897;50.322;18.892;2022-10-31T16:50:40;103.00;;;54.30;;
61938;SDS011;47897;50.322;18.892;2022-10-31T16:53:07;97.10;;;54.00;;
61938;SDS011;47897;50.322;18.892;2022-10-31T16:55:33;103.10;;;54.20;;
61938;SDS011;47897;50.322;18.892;2022-10-31T16:58:02;95.10;;;53.10;;
61938;SDS011;47897;50.322;18.892;2022-10-31T17:00:28;107.70;;;57.10;;
61938;SDS011;47897;50.322;18.892;2022-10-31T17:02:54;98.60;;;54.20;;
61938;SDS011;47897;50.322;18.892;2022-10-31T17:05:22;100.60;;;56.00;;
61938;SDS011;47897;50.322;18.892;2022-10-31T17:07:57;115.00;;;61.20;;
61938;SDS011;47897;50.322;18.892;2022-10-31T17:10:23;113.60;;;61.20;;
61938;SDS011;47897;50.322;18.892;2022-10-31T17:12:50;124.80;;;66.70;;
61938;SDS011;47897;50.322;18.892;2022-10-31T17:15:26;139.10;;;71.50;;
61938;SDS011;47897;50.322;18.892;2022-10-31T17:17:53;143.60;;;72.80;;